Terminal Aerodrome Forecast
Issued by NWS

Home | Current Version | Previous Version | Graphics & Text | Print | Product List | Glossary On
Versions: 1 2 3 4 5 6 7 8 9 10 11 12 13 14 15 16 17 18 19 20 21 22 23 24 25 26
710
FTUS43 KLOT 270303 AAB
TAFDPA
TAF AMD
KDPA 270303Z 2703/2724 15005KT 6SM -SHRA SCT035 OVC080
      TEMPO 2703/2704 27012G22KT 5SM -TSRA BKN015 OVC035CB
     FM270800 VRB03KT 5SM BR SCT020 BKN040
     FM271400 04008KT P6SM SCT030 BKN050
     FM272000 02012G18KT P6SM SCT020 BKN040=

USA.gov is the U.S. government's official web portal to all federal, state and local government web resources and services.